createdAt,value
2017-10-01T00:00:23.276Z,99.99
2017-10-01T00:01:23.211Z,99.99
2017-10-01T00:02:23.242Z,99.99
2017-10-01T00:04:55.791Z,99.99
2017-10-01T00:05:56.628Z,99.99
2017-10-01T00:07:49.166Z,99.99
2017-10-01T00:08:48.078Z,99.99
2017-10-01T00:10:42.255Z,99.99
2017-10-01T00:11:41.909Z,99.99
2017-10-01T00:13:36.319Z,99.99
2017-10-01T00:14:36.808Z,99.99
2017-10-01T00:16:29.927Z,99.99
2017-10-01T00:17:30.389Z,99.99
2017-10-01T00:19:23.118Z,99.99
2017-10-01T00:20:21.985Z,99.99
2017-10-01T00:22:14.953Z,99.99
2017-10-01T00:23:16.356Z,99.99
2017-10-01T00:25:22.935Z,99.99
2017-10-01T00:26:31.628Z,99.99
2017-10-01T00:28:16.838Z,99.99
2017-10-01T00:29:16.235Z,99.99
2017-10-01T00:31:09.150Z,99.99
2017-10-01T00:32:09.501Z,99.99
2017-10-01T00:34:03.399Z,99.99
2017-10-01T00:35:02.427Z,99.99
2017-10-01T00:36:57.206Z,99.99
2017-10-01T00:37:56.688Z,99.95
2017-10-01T00:39:50.554Z,99.99
2017-10-01T00:40:50.013Z,99.99
2017-10-01T00:42:41.906Z,99.99
2017-10-01T00:43:42.381Z,99.99
2017-10-01T00:45:35.321Z,99.85
2017-10-01T00:46:35.658Z,99.37
2017-10-01T00:47:34.802Z,99.57
2017-10-01T00:48:35.327Z,99.08
2017-10-01T00:49:35.664Z,99.61
2017-10-01T00:50:35.679Z,99.76
2017-10-01T00:51:34.655Z,98.47
2017-10-01T00:52:36.164Z,99.13
2017-10-01T00:53:36.140Z,99.04
2017-10-01T00:54:34.579Z,98.75
2017-10-01T00:55:34.526Z,98.94
2017-10-01T00:56:34.237Z,98.56
2017-10-01T00:57:34.035Z,98.94
2017-10-01T00:58:33.942Z,98.85
2017-10-01T00:59:33.966Z,98.85
2017-10-01T01:00:33.921Z,99.42
2017-10-01T01:01:33.900Z,98.94
2017-10-01T01:02:33.856Z,99.13
2017-10-01T01:03:33.786Z,99.52
2017-10-01T01:04:33.772Z,98.85
2017-10-01T01:05:33.725Z,99.71
2017-10-01T01:06:33.677Z,99.42
2017-10-01T01:07:33.623Z,99.13
2017-10-01T01:08:33.678Z,98.85
2017-10-01T01:09:33.581Z,99.42
2017-10-01T01:10:33.500Z,99.52
2017-10-01T01:11:33.497Z,99.52
2017-10-01T01:12:33.432Z,99.71
2017-10-01T01:13:33.410Z,99.52
2017-10-01T01:14:33.430Z,99.71
2017-10-01T01:15:33.335Z,99.90
2017-10-01T01:16:33.366Z,99.90
2017-10-01T01:17:33.314Z,99.71
2017-10-01T01:18:33.199Z,99.61
2017-10-01T01:19:33.232Z,99.71
2017-10-01T01:20:33.149Z,99.13
2017-10-01T01:21:33.124Z,99.52
2017-10-01T01:22:33.108Z,99.52
2017-10-01T01:23:33.036Z,99.52
2017-10-01T01:24:33.019Z,99.80
2017-10-01T01:25:32.982Z,99.99
2017-10-01T01:26:32.954Z,99.99
2017-10-01T01:27:32.924Z,99.90
2017-10-01T01:28:43.415Z,99.99
2017-10-01T01:29:33.816Z,99.99
2017-10-01T01:30:34.699Z,99.99
2017-10-01T01:31:33.769Z,99.99
2017-10-01T01:32:33.168Z,99.99
2017-10-01T01:33:33.144Z,99.99
2017-10-01T01:34:33.619Z,99.99
2017-10-01T01:35:33.043Z,99.99
2017-10-01T01:36:33.558Z,99.99
2017-10-01T01:37:33.475Z,99.99
2017-10-01T01:38:43.275Z,99.99
2017-10-01T01:39:33.422Z,99.99
2017-10-01T01:40:33.732Z,99.99
